createdAt,value
2023-03-29T00:01:36.029Z,2.10
2023-03-29T00:04:04.316Z,2.35
2023-03-29T00:06:33.064Z,2.30
2023-03-29T00:09:00.325Z,2.67
2023-03-29T00:11:27.299Z,2.38
2023-03-29T00:13:53.715Z,2.38
2023-03-29T00:16:20.282Z,2.42
2023-03-29T00:18:46.905Z,2.42
2023-03-29T00:21:13.423Z,2.38
2023-03-29T00:23:39.850Z,2.40
2023-03-29T00:26:08.123Z,2.58
2023-03-29T00:28:35.441Z,2.30
2023-03-29T00:31:06.893Z,2.45
2023-03-29T00:33:33.593Z,2.63
2023-03-29T00:36:00.235Z,2.30
2023-03-29T00:38:26.674Z,2.30
2023-03-29T00:40:53.079Z,2.53
2023-03-29T00:43:19.516Z,2.63
2023-03-29T00:45:45.948Z,2.78
2023-03-29T00:48:15.863Z,2.72
2023-03-29T00:50:48.313Z,2.10
2023-03-29T00:53:21.753Z,2.10
2023-03-29T00:56:09.990Z,2.03
2023-03-29T00:59:18.700Z,2.20
2023-03-29T01:01:55.729Z,2.10
2023-03-29T01:04:33.244Z,1.90
2023-03-29T01:07:04.141Z,2.38
2023-03-29T01:09:33.430Z,1.60
2023-03-29T01:12:03.338Z,1.50
2023-03-29T01:14:34.634Z,2.15
2023-03-29T01:17:00.969Z,1.80
2023-03-29T01:19:31.924Z,1.95
2023-03-29T01:22:19.678Z,1.88
2023-03-29T01:24:57.125Z,1.90
2023-03-29T01:27:32.506Z,1.83
2023-03-29T01:30:02.113Z,2.00
2023-03-29T01:32:37.574Z,1.70
2023-03-29T01:35:10.193Z,1.70
2023-03-29T01:37:44.086Z,2.00
2023-03-29T01:40:10.758Z,1.75
2023-03-29T01:42:46.629Z,1.77
2023-03-29T01:45:33.830Z,1.60
2023-03-29T01:48:18.624Z,1.60
2023-03-29T01:51:12.908Z,1.80
2023-03-29T01:54:04.448Z,1.88
2023-03-29T01:56:34.242Z,2.00
2023-03-29T01:59:08.801Z,1.80
2023-03-29T02:01:40.765Z,1.65
2023-03-29T02:04:10.765Z,1.70
2023-03-29T02:06:37.930Z,1.80
2023-03-29T02:09:04.874Z,1.80
2023-03-29T02:11:31.328Z,2.10
2023-03-29T02:13:58.012Z,2.05
2023-03-29T02:16:24.455Z,2.15
2023-03-29T02:18:52.813Z,1.92
2023-03-29T02:21:25.469Z,1.65
2023-03-29T02:23:54.539Z,1.70
2023-03-29T02:26:22.406Z,1.60
2023-03-29T02:28:49.461Z,1.90
2023-03-29T02:31:21.135Z,1.80
2023-03-29T02:34:29.792Z,1.58
2023-03-29T02:36:59.872Z,1.30
2023-03-29T02:39:27.941Z,2.00
2023-03-29T02:41:54.900Z,1.50
2023-03-29T02:44:24.063Z,2.03
2023-03-29T02:46:53.337Z,2.30
2023-03-29T02:49:20.156Z,2.10
2023-03-29T02:51:49.155Z,1.70
2023-03-29T02:54:19.375Z,2.10
2023-03-29T02:56:50.433Z,2.17
2023-03-29T02:59:19.300Z,1.98
2023-03-29T03:01:45.805Z,2.28
2023-03-29T03:04:13.076Z,1.88
2023-03-29T03:06:39.652Z,2.28
2023-03-29T03:09:06.929Z,1.83
2023-03-29T03:11:33.921Z,1.75
2023-03-29T03:14:00.426Z,1.80
2023-03-29T03:16:27.987Z,1.70
2023-03-29T03:18:55.712Z,2.00
2023-03-29T03:21:22.995Z,1.92
2023-03-29T03:23:49.565Z,1.92
2023-03-29T03:26:16.796Z,1.40
2023-03-29T03:28:43.689Z,1.88
2023-03-29T03:31:10.164Z,1.88
2023-03-29T03:33:36.520Z,1.92
2023-03-29T03:36:06.441Z,1.70
2023-03-29T03:38:33.459Z,1.73
2023-03-29T03:41:01.192Z,1.95
2023-03-29T03:43:31.205Z,1.45
2023-03-29T03:45:57.855Z,1.40
2023-03-29T03:48:24.794Z,1.58
2023-03-29T03:50:55.902Z,1.70
2023-03-29T03:53:23.514Z,2.05
2023-03-29T03:55:51.133Z,1.83
2023-03-29T03:58:18.322Z,1.80
2023-03-29T04:00:47.552Z,1.60
2023-03-29T04:03:17.713Z,1.90
2023-03-29T04:05:45.553Z,2.00
2023-03-29T04:08:12.944Z,1.58
2023-03-29T04:10:41.193Z,1.77
2023-03-29T04:13:07.864Z,1.58
2023-03-29T04:15:38.841Z,1.70
2023-03-29T04:18:07.226Z,1.50
2023-03-29T04:20:34.212Z,1.70
2023-03-29T04:23:00.951Z,1.77
2023-03-29T04:25:27.436Z,1.75
2023-03-29T04:27:53.903Z,1.45
2023-03-29T04:30:20.371Z,1.88
2023-03-29T04:32:47.210Z,1.73
2023-03-29T04:35:13.666Z,1.92
2023-03-29T04:37:40.313Z,1.70
2023-03-29T04:40:13.931Z,1.80
2023-03-29T04:42:45.717Z,1.50
2023-03-29T04:45:13.823Z,1.70
2023-03-29T04:47:41.863Z,1.75
2023-03-29T04:50:08.576Z,1.83
2023-03-29T04:52:35.465Z,1.80
2023-03-29T04:55:02.435Z,1.52
2023-03-29T04:57:30.182Z,3.75
2023-03-29T04:59:56.604Z,2.70
2023-03-29T05:02:23.198Z,2.10
2023-03-29T05:04:50.360Z,1.83
2023-03-29T05:07:18.017Z,1.48
2023-03-29T05:09:44.383Z,1.45
2023-03-29T05:12:11.066Z,1.52
2023-03-29T05:14:37.466Z,1.60
2023-03-29T05:17:04.943Z,1.48
2023-03-29T05:19:31.948Z,1.85
2023-03-29T05:21:58.985Z,1.70
2023-03-29T05:24:25.317Z,1.80
2023-03-29T05:26:52.054Z,1.80
2023-03-29T05:29:18.913Z,1.90
2023-03-29T05:31:45.322Z,1.73
2023-03-29T05:34:11.690Z,1.95
2023-03-29T05:36:39.132Z,2.03
2023-03-29T05:39:06.570Z,2.17
2023-03-29T05:41:33.652Z,2.13
2023-03-29T05:44:00.015Z,1.95
2023-03-29T05:46:27.207Z,1.85
2023-03-29T05:48:53.683Z,2.20
2023-03-29T05:51:24.086Z,1.98
2023-03-29T05:53:53.647Z,1.80
2023-03-29T05:56:20.011Z,2.10
2023-03-29T05:58:53.697Z,2.05
2023-03-29T06:01:22.437Z,2.25
2023-03-29T06:03:48.991Z,3.00
2023-03-29T06:06:16.406Z,3.67
2023-03-29T06:08:44.048Z,3.40
2023-03-29T06:11:11.528Z,3.47
2023-03-29T06:13:38.778Z,2.95
2023-03-29T06:16:06.150Z,2.90
2023-03-29T06:18:33.240Z,3.58
2023-03-29T06:20:59.706Z,3.95
2023-03-29T06:23:26.127Z,4.22
2023-03-29T06:25:52.752Z,3.85
2023-03-29T06:28:19.417Z,3.78
2023-03-29T06:30:46.008Z,4.10
2023-03-29T06:33:13.028Z,4.35
2023-03-29T06:35:42.911Z,3.90
2023-03-29T06:38:09.923Z,3.90
2023-03-29T06:40:37.890Z,4.00
2023-03-29T06:43:04.759Z,4.60
2023-03-29T06:45:33.554Z,4.32
2023-03-29T06:48:00.163Z,3.85
2023-03-29T06:50:27.088Z,4.10
2023-03-29T06:52:53.464Z,4.75
2023-03-29T06:55:20.569Z,3.78
2023-03-29T06:57:47.419Z,3.90
2023-03-29T07:00:17.059Z,4.15
2023-03-29T07:02:43.856Z,4.13
2023-03-29T07:05:11.983Z,4.10
2023-03-29T07:07:56.360Z,3.92
2023-03-29T07:12:50.181Z,4.30
2023-03-29T07:15:16.667Z,4.70
2023-03-29T07:17:43.188Z,4.50
2023-03-29T07:20:13.794Z,3.97
2023-03-29T07:22:44.101Z,4.80
2023-03-29T07:25:12.192Z,4.35
2023-03-29T07:27:40.126Z,4.15
2023-03-29T07:30:11.188Z,4.50
2023-03-29T07:32:38.823Z,4.57
2023-03-29T07:35:07.186Z,4.53
2023-03-29T07:37:35.090Z,4.53
2023-03-29T07:40:03.906Z,4.25
2023-03-29T07:42:30.330Z,3.58
2023-03-29T07:44:58.421Z,4.30
2023-03-29T07:47:24.823Z,4.07
2023-03-29T07:49:51.213Z,4.10
2023-03-29T07:52:18.041Z,4.10
2023-03-29T07:54:45.250Z,4.70
2023-03-29T07:57:12.107Z,3.60
2023-03-29T07:59:38.556Z,4.90
2023-03-29T08:02:05.050Z,4.63
2023-03-29T08:04:31.659Z,4.53
2023-03-29T08:06:58.683Z,4.50
2023-03-29T08:09:25.875Z,4.15
2023-03-29T08:11:52.252Z,3.88
2023-03-29T08:14:18.633Z,4.13
2023-03-29T08:16:45.041Z,4.43
2023-03-29T08:19:11.466Z,4.45
2023-03-29T08:21:37.807Z,4.63
2023-03-29T08:24:04.392Z,4.72
2023-03-29T08:26:30.766Z,4.20
2023-03-29T08:28:57.112Z,4.32
2023-03-29T08:31:23.524Z,3.63
2023-03-29T08:33:49.918Z,4.10
2023-03-29T08:36:16.522Z,4.55
2023-03-29T08:38:43.065Z,3.72
2023-03-29T08:41:29.100Z,4.25
2023-03-29T08:44:20.478Z,4.88
2023-03-29T08:47:08.562Z,4.60
2023-03-29T08:49:37.950Z,4.53
2023-03-29T08:52:06.820Z,4.68
2023-03-29T08:54:46.479Z,4.45
2023-03-29T08:57:26.977Z,4.28
2023-03-29T08:59:55.281Z,4.82
2023-03-29T09:02:24.783Z,4.20
2023-03-29T09:04:53.079Z,4.50
2023-03-29T09:07:19.829Z,4.07
2023-03-29T09:09:46.286Z,4.13
2023-03-29T09:12:53.617Z,4.05
2023-03-29T09:15:28.975Z,4.60
2023-03-29T09:18:02.870Z,4.43
2023-03-29T09:20:50.294Z,4.50
2023-03-29T09:23:52.746Z,4.90
2023-03-29T09:26:40.717Z,5.05
2023-03-29T09:29:31.733Z,5.38
2023-03-29T09:31:58.529Z,4.55
2023-03-29T09:34:31.736Z,4.75
2023-03-29T09:37:11.898Z,4.68
2023-03-29T09:39:40.003Z,4.93
2023-03-29T09:42:11.814Z,4.70
2023-03-29T09:44:52.508Z,4.70
2023-03-29T09:47:24.995Z,4.55
2023-03-29T09:49:57.080Z,4.85
2023-03-29T09:52:23.529Z,4.88
2023-03-29T09:54:50.058Z,4.50
2023-03-29T09:57:17.599Z,4.95
2023-03-29T09:59:46.109Z,4.25
2023-03-29T10:02:13.857Z,4.65
2023-03-29T10:04:42.499Z,4.55
2023-03-29T10:07:13.210Z,5.32
2023-03-29T10:09:42.343Z,4.25
2023-03-29T10:12:08.792Z,5.22
2023-03-29T10:14:42.163Z,4.68
2023-03-29T10:17:15.504Z,5.03
2023-03-29T10:19:57.738Z,4.87
2023-03-29T10:22:32.555Z,4.60
2023-03-29T10:24:58.874Z,4.70
2023-03-29T10:27:27.628Z,4.82
2023-03-29T10:29:54.628Z,4.18
2023-03-29T10:32:30.137Z,4.10
2023-03-29T10:35:00.160Z,4.05
2023-03-29T10:37:28.381Z,3.45
2023-03-29T10:39:54.787Z,3.67
2023-03-29T10:42:23.750Z,4.10
2023-03-29T10:44:55.324Z,4.13
2023-03-29T10:47:22.042Z,4.22
2023-03-29T10:49:58.787Z,4.80
2023-03-29T10:52:25.697Z,4.80
2023-03-29T10:54:55.332Z,4.13
2023-03-29T10:57:32.265Z,3.70
2023-03-29T11:00:23.301Z,4.07
2023-03-29T11:02:59.983Z,4.40
2023-03-29T11:05:49.550Z,4.13
2023-03-29T11:08:37.740Z,5.40
2023-03-29T11:11:43.914Z,4.68
2023-03-29T11:14:13.841Z,4.47
2023-03-29T11:16:47.855Z,4.82
2023-03-29T11:19:33.188Z,4.25
2023-03-29T11:22:11.355Z,4.85
2023-03-29T11:24:58.923Z,4.40
2023-03-29T11:27:36.396Z,4.80
2023-03-29T11:30:29.029Z,4.50
2023-03-29T11:33:13.818Z,4.63
2023-03-29T11:35:52.522Z,3.90
2023-03-29T11:38:39.415Z,4.32
2023-03-29T11:41:15.514Z,4.55
2023-03-29T11:43:49.017Z,4.45
2023-03-29T11:46:20.116Z,3.83
2023-03-29T11:48:54.044Z,4.55
2023-03-29T11:51:25.872Z,4.38
2023-03-29T11:54:06.582Z,4.15
2023-03-29T11:56:59.887Z,4.38
2023-03-29T11:59:47.565Z,4.13
2023-03-29T12:02:23.592Z,4.60
2023-03-29T12:04:52.962Z,4.57
2023-03-29T12:07:42.243Z,4.78
2023-03-29T12:10:17.231Z,4.68
2023-03-29T12:13:29.199Z,4.13
2023-03-29T12:16:17.421Z,4.03
2023-03-29T12:18:46.982Z,3.95
2023-03-29T12:21:17.206Z,5.30
2023-03-29T12:23:44.523Z,5.07
2023-03-29T12:26:27.262Z,5.13
2023-03-29T12:29:12.157Z,5.10
2023-03-29T12:32:38.593Z,5.53
2023-03-29T12:35:16.124Z,4.68
2023-03-29T12:37:55.844Z,4.75
2023-03-29T12:40:25.957Z,4.28
2023-03-29T12:43:02.186Z,4.43
2023-03-29T12:45:32.158Z,3.90
2023-03-29T12:48:00.996Z,4.50
2023-03-29T12:50:33.897Z,4.47
2023-03-29T12:53:23.807Z,4.20
2023-03-29T12:55:58.870Z,4.45
2023-03-29T12:58:42.805Z,4.30
2023-03-29T13:01:39.772Z,4.80
2023-03-29T13:04:20.236Z,3.85
2023-03-29T13:06:46.533Z,4.47
2023-03-29T13:09:36.649Z,4.30
2023-03-29T13:12:16.074Z,3.60
2023-03-29T13:14:45.246Z,4.00
2023-03-29T13:17:48.109Z,3.55
2023-03-29T13:20:17.167Z,3.70
2023-03-29T13:23:24.916Z,3.90
2023-03-29T13:25:57.171Z,3.58
2023-03-29T13:28:46.003Z,3.53
2023-03-29T13:31:28.396Z,3.70
2023-03-29T13:34:01.694Z,3.70
2023-03-29T13:36:54.112Z,3.97
2023-03-29T13:39:25.088Z,3.35
2023-03-29T13:41:53.358Z,3.83
2023-03-29T13:44:22.359Z,3.67
2023-03-29T13:46:49.839Z,3.88
2023-03-29T13:49:21.545Z,3.80
2023-03-29T13:52:13.459Z,3.88
2023-03-29T13:55:01.887Z,3.83
2023-03-29T13:57:37.229Z,3.80
2023-03-29T14:00:20.151Z,4.50
2023-03-29T14:02:50.104Z,4.18
2023-03-29T14:05:19.330Z,4.45
2023-03-29T14:07:53.654Z,4.40
2023-03-29T14:10:26.020Z,4.28
2023-03-29T14:12:52.970Z,5.78
2023-03-29T14:15:23.160Z,4.30
2023-03-29T14:17:53.619Z,4.38
2023-03-29T14:20:20.856Z,5.03
2023-03-29T14:22:47.245Z,4.85
2023-03-29T14:25:17.178Z,5.03
2023-03-29T14:27:44.081Z,4.57
2023-03-29T14:30:22.334Z,4.45
2023-03-29T14:32:50.320Z,3.80
2023-03-29T14:35:18.314Z,4.57
2023-03-29T14:37:46.345Z,4.18
2023-03-29T14:40:19.141Z,4.10
2023-03-29T14:42:47.273Z,5.15
2023-03-29T14:45:16.692Z,4.63
2023-03-29T14:47:44.954Z,5.00
2023-03-29T14:50:30.799Z,5.45
2023-03-29T14:52:58.278Z,4.20
2023-03-29T14:55:24.873Z,4.57
2023-03-29T14:57:54.135Z,4.00
2023-03-29T15:00:28.259Z,4.30
2023-03-29T15:03:00.602Z,3.45
2023-03-29T15:05:41.302Z,5.75
2023-03-29T15:08:10.301Z,4.07
2023-03-29T15:10:37.898Z,3.03
2023-03-29T15:13:05.817Z,3.35
2023-03-29T15:15:34.605Z,3.67
2023-03-29T15:18:02.030Z,3.55
2023-03-29T15:20:32.088Z,3.63
2023-03-29T15:23:01.808Z,3.10
2023-03-29T15:25:33.398Z,2.90
2023-03-29T15:28:01.543Z,2.85
2023-03-29T15:30:34.566Z,3.20
2023-03-29T15:33:16.321Z,3.65
2023-03-29T15:35:44.149Z,3.25
2023-03-29T15:38:12.429Z,3.28
2023-03-29T15:40:38.941Z,3.15
2023-03-29T15:43:05.915Z,3.30
2023-03-29T15:45:32.453Z,3.42
2023-03-29T15:48:01.796Z,2.65
2023-03-29T15:50:28.580Z,3.05
2023-03-29T15:53:08.530Z,2.53
2023-03-29T15:55:44.668Z,2.78
2023-03-29T15:58:15.426Z,2.80
2023-03-29T16:00:43.497Z,3.70
2023-03-29T16:03:18.032Z,2.92
2023-03-29T16:05:45.286Z,2.53
2023-03-29T16:08:12.368Z,3.70
2023-03-29T16:10:43.695Z,3.75
2023-03-29T16:13:13.469Z,3.40
2023-03-29T16:15:40.858Z,5.00
2023-03-29T16:18:07.249Z,2.97
2023-03-29T16:20:33.694Z,3.22
2023-03-29T16:23:00.258Z,3.28
2023-03-29T16:25:27.891Z,3.70
2023-03-29T16:27:54.244Z,3.63
2023-03-29T16:30:20.651Z,3.17
2023-03-29T16:32:47.051Z,3.05
2023-03-29T16:35:20.228Z,3.15
2023-03-29T16:37:46.644Z,3.42
2023-03-29T16:40:13.310Z,3.20
2023-03-29T16:42:39.808Z,3.75
2023-03-29T16:45:07.548Z,2.90
2023-03-29T16:47:33.978Z,2.95
2023-03-29T16:50:00.635Z,2.70
2023-03-29T16:52:27.529Z,3.00
2023-03-29T16:54:53.959Z,3.10
2023-03-29T16:57:20.400Z,3.42
2023-03-29T16:59:47.675Z,3.38
2023-03-29T17:02:14.017Z,3.17
2023-03-29T17:04:40.512Z,3.03
2023-03-29T17:07:08.917Z,2.70
2023-03-29T17:09:35.258Z,3.40
2023-03-29T17:12:01.641Z,2.80
2023-03-29T17:14:28.076Z,2.88
2023-03-29T17:16:54.821Z,3.38
2023-03-29T17:19:21.313Z,3.70
2023-03-29T17:21:47.708Z,2.85
2023-03-29T17:24:14.258Z,3.63
2023-03-29T17:26:42.165Z,2.80
2023-03-29T17:29:09.642Z,3.58
2023-03-29T17:31:36.828Z,3.47
2023-03-29T17:34:03.381Z,3.55
2023-03-29T17:36:33.601Z,3.13
2023-03-29T17:39:02.597Z,3.00
2023-03-29T17:41:31.223Z,2.70
2023-03-29T17:43:58.327Z,3.15
2023-03-29T17:46:24.751Z,3.00
2023-03-29T17:48:51.382Z,2.47
2023-03-29T17:51:19.556Z,2.60
2023-03-29T17:53:46.623Z,3.25
2023-03-29T17:56:13.221Z,2.50
2023-03-29T17:58:39.670Z,3.13
2023-03-29T18:01:13.424Z,3.35
2023-03-29T18:03:40.258Z,2.88
2023-03-29T18:06:07.007Z,2.92
2023-03-29T18:08:33.447Z,2.75
2023-03-29T18:11:07.567Z,3.38
2023-03-29T18:13:33.982Z,2.80
2023-03-29T18:16:00.475Z,2.72
2023-03-29T18:18:27.176Z,3.00
2023-03-29T18:20:53.603Z,2.42
2023-03-29T18:23:20.225Z,2.47
2023-03-29T18:25:46.653Z,2.42
2023-03-29T18:28:13.033Z,2.55
2023-03-29T18:30:39.384Z,2.67
2023-03-29T18:33:06.074Z,2.30
2023-03-29T18:35:32.462Z,2.90
2023-03-29T18:37:58.936Z,2.65
2023-03-29T18:40:25.865Z,3.10
2023-03-29T18:42:52.346Z,3.03
2023-03-29T18:45:19.282Z,3.03
2023-03-29T18:47:46.745Z,2.72
2023-03-29T18:50:13.183Z,2.97
2023-03-29T18:52:40.077Z,3.53
2023-03-29T18:55:07.242Z,3.30
2023-03-29T18:57:33.630Z,3.20
2023-03-29T19:00:00.025Z,3.55
2023-03-29T19:02:26.759Z,3.15
2023-03-29T19:04:53.509Z,3.08
2023-03-29T19:07:21.799Z,3.10
2023-03-29T19:09:48.971Z,3.00
2023-03-29T19:12:15.395Z,3.25
2023-03-29T19:14:41.742Z,3.50
2023-03-29T19:17:08.179Z,4.00
2023-03-29T19:19:34.555Z,4.40
2023-03-29T19:22:00.984Z,4.45
2023-03-29T19:24:27.376Z,3.45
2023-03-29T19:26:53.806Z,3.15
2023-03-29T19:29:20.484Z,3.45
2023-03-29T19:31:47.144Z,3.13
2023-03-29T19:34:13.675Z,3.17
2023-03-29T19:36:42.770Z,3.97
2023-03-29T19:39:18.697Z,3.20
2023-03-29T19:41:45.230Z,3.67
2023-03-29T19:44:13.552Z,3.67
2023-03-29T19:46:40.749Z,3.50
2023-03-29T19:49:08.495Z,3.97
2023-03-29T19:51:34.852Z,4.18
2023-03-29T19:54:01.331Z,4.10
2023-03-29T19:56:36.574Z,3.65
2023-03-29T19:59:17.480Z,3.17
2023-03-29T20:01:51.339Z,3.53
2023-03-29T20:04:22.982Z,3.50
2023-03-29T20:06:52.452Z,3.55
2023-03-29T20:09:18.947Z,3.60
2023-03-29T20:11:46.994Z,3.33
2023-03-29T20:14:13.640Z,3.85
2023-03-29T20:16:43.499Z,4.40
2023-03-29T20:19:10.221Z,3.40
2023-03-29T20:21:41.014Z,3.65
2023-03-29T20:24:08.602Z,3.15
2023-03-29T20:26:37.548Z,2.95
2023-03-29T20:29:03.967Z,3.30
2023-03-29T20:31:31.592Z,3.10
2023-03-29T20:33:58.075Z,2.63
2023-03-29T20:36:26.432Z,3.50
2023-03-29T20:38:55.354Z,3.85
2023-03-29T20:41:22.793Z,3.28
2023-03-29T20:43:58.187Z,3.30
2023-03-29T20:46:33.016Z,3.75
2023-03-29T20:49:07.494Z,3.55
2023-03-29T20:51:33.896Z,3.13
2023-03-29T20:54:02.971Z,3.35
2023-03-29T20:56:32.150Z,3.10
2023-03-29T20:58:59.502Z,3.17
2023-03-29T21:01:28.008Z,3.00
2023-03-29T21:03:55.114Z,3.05
2023-03-29T21:06:24.861Z,2.65
2023-03-29T21:08:55.621Z,3.22
2023-03-29T21:11:25.537Z,3.30
2023-03-29T21:14:04.706Z,4.57
2023-03-29T21:16:50.060Z,4.10
2023-03-29T21:19:16.569Z,3.63
2023-03-29T21:21:44.871Z,3.67
2023-03-29T21:24:13.392Z,3.30
2023-03-29T21:26:41.021Z,3.50
2023-03-29T21:29:07.612Z,3.22
2023-03-29T21:31:34.185Z,3.42
2023-03-29T21:34:05.602Z,3.33
2023-03-29T21:36:31.963Z,3.10
2023-03-29T21:38:58.354Z,3.53
2023-03-29T21:41:27.980Z,3.80
2023-03-29T21:43:54.350Z,3.38
2023-03-29T21:46:21.391Z,3.28
2023-03-29T21:48:47.786Z,3.42
2023-03-29T21:51:14.213Z,3.47
2023-03-29T21:53:40.958Z,3.33
2023-03-29T21:56:08.286Z,3.72
2023-03-29T21:58:34.750Z,3.53
2023-03-29T22:01:03.559Z,3.78
2023-03-29T22:03:30.584Z,3.35
2023-03-29T22:06:02.480Z,3.28
2023-03-29T22:08:29.885Z,3.55
2023-03-29T22:10:57.317Z,3.47
2023-03-29T22:13:25.425Z,3.22
2023-03-29T22:15:59.161Z,2.70
2023-03-29T22:18:27.849Z,2.70
2023-03-29T22:20:54.370Z,2.58
2023-03-29T22:23:20.784Z,2.80
2023-03-29T22:25:47.231Z,2.55
2023-03-29T22:28:13.639Z,2.95
2023-03-29T22:30:40.122Z,2.40
2023-03-29T22:33:08.930Z,2.70
2023-03-29T22:35:36.006Z,2.45
2023-03-29T22:38:02.442Z,2.67
2023-03-29T22:40:30.786Z,3.30
2023-03-29T22:42:57.218Z,3.10
2023-03-29T22:45:23.727Z,2.72
2023-03-29T22:47:50.210Z,3.00
2023-03-29T22:50:17.162Z,2.60
2023-03-29T22:52:43.541Z,3.15
2023-03-29T22:55:13.041Z,2.75
2023-03-29T22:57:39.412Z,3.05
2023-03-29T23:00:08.899Z,2.70
2023-03-29T23:02:36.537Z,2.92
2023-03-29T23:05:03.010Z,2.75
2023-03-29T23:07:29.439Z,2.75
2023-03-29T23:09:56.112Z,2.95
2023-03-29T23:12:24.032Z,3.10
2023-03-29T23:14:53.082Z,2.72
2023-03-29T23:17:19.531Z,3.15
2023-03-29T23:19:46.004Z,2.38
2023-03-29T23:22:12.376Z,3.05
2023-03-29T23:24:38.778Z,2.80
2023-03-29T23:27:05.355Z,2.97
2023-03-29T23:29:31.840Z,3.03
2023-03-29T23:31:59.462Z,2.60
2023-03-29T23:34:25.862Z,2.88
2023-03-29T23:36:52.355Z,2.65
2023-03-29T23:39:24.486Z,2.63
2023-03-29T23:41:51.913Z,2.25
2023-03-29T23:44:21.668Z,2.97
2023-03-29T23:46:48.353Z,2.40
2023-03-29T23:49:19.225Z,2.42
2023-03-29T23:51:48.186Z,2.88
2023-03-29T23:54:15.154Z,2.58
2023-03-29T23:56:41.599Z,2.38
2023-03-29T23:59:08.038Z,2.58
